sensor_id;sensor_type;location;lat;lon;timestamp;temperature;humidity
49855;DHT22;35752;52.164;21.244;2023-01-26T00:00:45;2.00;99.90
49855;DHT22;35752;52.164;21.244;2023-01-26T00:03:11;1.90;99.90
49855;DHT22;35752;52.164;21.244;2023-01-26T00:05:37;1.90;99.90
49855;DHT22;35752;52.164;21.244;2023-01-26T00:08:02;1.90;99.90
49855;DHT22;35752;52.164;21.244;2023-01-26T00:10:28;1.90;99.90
49855;DHT22;35752;52.164;21.244;2023-01-26T00:12:54;2.00;99.90
49855;DHT22;35752;52.164;21.244;2023-01-26T00:15:19;1.90;99.90
49855;DHT22;35752;52.164;21.244;2023-01-26T00:17:45;1.90;99.90
49855;DHT22;35752;52.164;21.244;2023-01-26T00:20:11;1.90;99.90
49855;DHT22;35752;52.164;21.244;2023-01-26T00:22:37;1.90;99.90
49855;DHT22;35752;52.164;21.244;2023-01-26T00:25:03;1.90;99.90
49855;DHT22;35752;52.164;21.244;2023-01-26T00:27:28;2.00;99.90
49855;DHT22;35752;52.164;21.244;2023-01-26T00:29:56;1.90;99.90
49855;DHT22;35752;52.164;21.244;2023-01-26T00:32:22;1.90;99.90
49855;DHT22;35752;52.164;21.244;2023-01-26T00:34:47;1.90;99.90
49855;DHT22;35752;52.164;21.244;2023-01-26T00:37:13;1.90;99.90
49855;DHT22;35752;52.164;21.244;2023-01-26T00:39:39;1.90;99.90
49855;DHT22;35752;52.164;21.244;2023-01-26T00:42:04;1.90;99.90
49855;DHT22;35752;52.164;21.244;2023-01-26T00:44:39;1.90;99.90
49855;DHT22;35752;52.164;21.244;2023-01-26T00:47:07;2.00;99.90
49855;DHT22;35752;52.164;21.244;2023-01-26T00:49:34;1.90;99.90
49855;DHT22;35752;52.164;21.244;2023-01-26T00:52:00;2.00;99.90
49855;DHT22;35752;52.164;21.244;2023-01-26T00:54:27;1.90;99.90
49855;DHT22;35752;52.164;21.244;2023-01-26T00:56:53;1.80;99.90
49855;DHT22;35752;52.164;21.244;2023-01-26T00:59:19;1.90;99.90
49855;DHT22;35752;52.164;21.244;2023-01-26T01:01:45;1.90;99.90
49855;DHT22;35752;52.164;21.244;2023-01-26T01:04:11;1.90;99.90
49855;DHT22;35752;52.164;21.244;2023-01-26T01:06:37;1.90;99.90
49855;DHT22;35752;52.164;21.244;2023-01-26T01:09:02;1.90;99.90
49855;DHT22;35752;52.164;21.244;2023-01-26T01:11:28;1.90;99.90
49855;DHT22;35752;52.164;21.244;2023-01-26T01:13:54;1.90;99.90
49855;DHT22;35752;52.164;21.244;2023-01-26T01:16:19;1.70;99.90
49855;DHT22;35752;52.164;21.244;2023-01-26T01:18:45;1.70;99.90
49855;DHT22;35752;52.164;21.244;2023-01-26T01:21:13;1.80;99.90
49855;DHT22;35752;52.164;21.244;2023-01-26T01:23:40;1.80;99.90
49855;DHT22;35752;52.164;21.244;2023-01-26T01:26:07;1.80;99.90
49855;DHT22;35752;52.164;21.244;2023-01-26T01:28:34;1.80;99.90
49855;DHT22;35752;52.164;21.244;2023-01-26T01:31:04;1.90;99.90
49855;DHT22;35752;52.164;21.244;2023-01-26T01:33:29;1.90;99.90
49855;DHT22;35752;52.164;21.244;2023-01-26T01:36:00;1.90;99.90
49855;DHT22;35752;52.164;21.244;2023-01-26T01:38:26;1.90;99.90
49855;DHT22;35752;52.164;21.244;2023-01-26T01:40:53;1.90;99.90
49855;DHT22;35752;52.164;21.244;2023-01-26T01:43:20;1.90;99.90
49855;DHT22;35752;52.164;21.244;2023-01-26T01:45:47;1.90;99.90
49855;DHT22;35752;52.164;21.244;2023-01-26T01:48:29;1.90;99.90
49855;DHT22;35752;52.164;21.244;2023-01-26T01:50:58;1.90;99.90
49855;DHT22;35752;52.164;21.244;2023-01-26T01:53:32;2.00;99.90
49855;DHT22;35752;52.164;21.244;2023-01-26T01:56:10;1.90;99.90
49855;DHT22;35752;52.164;21.244;2023-01-26T01:58:38;1.90;99.90
49855;DHT22;35752;52.164;21.244;2023-01-26T02:01:04;1.90;99.90
49855;DHT22;35752;52.164;21.244;2023-01-26T02:03:31;1.80;99.90
49855;DHT22;35752;52.164;21.244;2023-01-26T02:11:24;1.80;99.90
49855;DHT22;35752;52.164;21.244;2023-01-26T02:13:51;1.80;99.90
49855;DHT22;35752;52.164;21.244;2023-01-26T02:16:18;1.80;99.90
49855;DHT22;35752;52.164;21.244;2023-01-26T02:18:44;1.80;99.90
49855;DHT22;35752;52.164;21.244;2023-01-26T02:21:14;1.80;99.90
49855;DHT22;35752;52.164;21.244;2023-01-26T02:26:23;1.80;99.90
49855;DHT22;35752;52.164;21.244;2023-01-26T02:28:50;1.70;99.90
49855;DHT22;35752;52.164;21.244;2023-01-26T02:31:16;1.80;99.90
49855;DHT22;35752;52.164;21.244;2023-01-26T02:33:43;1.80;99.90
49855;DHT22;35752;52.164;21.244;2023-01-26T02:36:26;1.80;99.90
49855;DHT22;35752;52.164;21.244;2023-01-26T02:41:38;1.80;99.90
49855;DHT22;35752;52.164;21.244;2023-01-26T02:44:23;1.80;99.90
49855;DHT22;35752;52.164;21.244;2023-01-26T02:46:49;1.80;99.90
49855;DHT22;35752;52.164;21.244;2023-01-26T02:49:15;1.80;99.90
49855;DHT22;35752;52.164;21.244;2023-01-26T02:51:59;1.80;99.90
49855;DHT22;35752;52.164;21.244;2023-01-26T02:54:26;1.80;99.90
49855;DHT22;35752;52.164;21.244;2023-01-26T02:57:10;1.80;99.90
49855;DHT22;35752;52.164;21.244;2023-01-26T02:59:35;1.80;99.90
49855;DHT22;35752;52.164;21.244;2023-01-26T03:02:01;1.80;99.90
49855;DHT22;35752;52.164;21.244;2023-01-26T03:04:27;1.80;99.90
49855;DHT22;35752;52.164;21.244;2023-01-26T03:06:53;1.90;99.90
49855;DHT22;35752;52.164;21.244;2023-01-26T03:09:18;1.90;99.90
49855;DHT22;35752;52.164;21.244;2023-01-26T03:11:46;1.90;99.90
49855;DHT22;35752;52.164;21.244;2023-01-26T03:14:13;1.90;99.90
49855;DHT22;35752;52.164;21.244;2023-01-26T03:16:40;1.90;99.90
49855;DHT22;35752;52.164;21.244;2023-01-26T03:19:07;1.90;99.90
49855;DHT22;35752;52.164;21.244;2023-01-26T03:21:52;1.90;99.90
49855;DHT22;35752;52.164;21.244;2023-01-26T03:24:36;1.90;99.90
49855;DHT22;35752;52.164;21.244;2023-01-26T03:27:20;1.90;99.90
49855;DHT22;35752;52.164;21.244;2023-01-26T03:29:52;1.90;99.90
49855;DHT22;35752;52.164;21.244;2023-01-26T03:32:18;1.80;99.90
49855;DHT22;35752;52.164;21.244;2023-01-26T03:34:44;1.80;99.90
49855;DHT22;35752;52.164;21.244;2023-01-26T03:37:10;1.80;99.90
49855;DHT22;35752;52.164;21.244;2023-01-26T03:39:36;1.80;99.90
49855;DHT22;35752;52.164;21.244;2023-01-26T03:42:20;1.90;99.90
49855;DHT22;35752;52.164;21.244;2023-01-26T03:45:05;2.00;99.90
49855;DHT22;35752;52.164;21.244;2023-01-26T03:47:49;1.90;99.90
49855;DHT22;35752;52.164;21.244;2023-01-26T03:50:33;1.90;99.90
49855;DHT22;35752;52.164;21.244;2023-01-26T03:53:21;2.00;99.90
49855;DHT22;35752;52.164;21.244;2023-01-26T03:56:06;2.10;99.90
49855;DHT22;35752;52.164;21.244;2023-01-26T03:58:43;2.00;99.90
49855;DHT22;35752;52.164;21.244;2023-01-26T04:01:09;1.90;99.90
49855;DHT22;35752;52.164;21.244;2023-01-26T04:03:35;2.00;99.90
49855;DHT22;35752;52.164;21.244;2023-01-26T04:06:20;2.00;99.90
49855;DHT22;35752;52.164;21.244;2023-01-26T04:09:04;1.90;99.90
49855;DHT22;35752;52.164;21.244;2023-01-26T04:11:30;1.90;99.90
49855;DHT22;35752;52.164;21.244;2023-01-26T04:13:55;1.90;99.90
49855;DHT22;35752;52.164;21.244;2023-01-26T04:16:39;1.90;99.90
49855;DHT22;35752;52.164;21.244;2023-01-26T04:19:23;1.90;99.90
49855;DHT22;35752;52.164;21.244;2023-01-26T04:22:08;2.00;99.90
49855;DHT22;35752;52.164;21.244;2023-01-26T04:24:33;2.00;99.90
49855;DHT22;35752;52.164;21.244;2023-01-26T04:26:59;2.00;99.90
49855;DHT22;35752;52.164;21.244;2023-01-26T04:29:25;2.00;99.90
49855;DHT22;35752;52.164;21.244;2023-01-26T04:31:50;2.00;99.90
49855;DHT22;35752;52.164;21.244;2023-01-26T04:34:16;2.00;99.90
49855;DHT22;35752;52.164;21.244;2023-01-26T04:36:42;2.00;99.90
49855;DHT22;35752;52.164;21.244;2023-01-26T04:39:08;1.80;99.90
49855;DHT22;35752;52.164;21.244;2023-01-26T04:41:34;1.90;99.90
49855;DHT22;35752;52.164;21.244;2023-01-26T04:44:00;1.90;99.90
49855;DHT22;35752;52.164;21.244;2023-01-26T04:46:25;1.90;99.90
49855;DHT22;35752;52.164;21.244;2023-01-26T04:48:51;1.90;99.90
49855;DHT22;35752;52.164;21.244;2023-01-26T04:51:19;1.90;99.90
49855;DHT22;35752;52.164;21.244;2023-01-26T04:53:46;2.00;99.90
49855;DHT22;35752;52.164;21.244;2023-01-26T04:56:24;2.00;99.90
49855;DHT22;35752;52.164;21.244;2023-01-26T04:58:50;2.00;99.90
49855;DHT22;35752;52.164;21.244;2023-01-26T05:01:17;2.00;99.90
49855;DHT22;35752;52.164;21.244;2023-01-26T05:03:42;2.00;99.90
49855;DHT22;35752;52.164;21.244;2023-01-26T05:06:08;2.00;99.90
49855;DHT22;35752;52.164;21.244;2023-01-26T05:08:35;2.00;99.90
49855;DHT22;35752;52.164;21.244;2023-01-26T05:11:01;2.00;99.90
49855;DHT22;35752;52.164;21.244;2023-01-26T05:13:26;2.00;99.90
49855;DHT22;35752;52.164;21.244;2023-01-26T05:15:52;2.00;99.90
49855;DHT22;35752;52.164;21.244;2023-01-26T05:18:18;1.90;99.90
49855;DHT22;35752;52.164;21.244;2023-01-26T05:20:43;1.90;99.90
49855;DHT22;35752;52.164;21.244;2023-01-26T05:23:09;1.90;99.90
49855;DHT22;35752;52.164;21.244;2023-01-26T05:25:34;1.90;99.90
49855;DHT22;35752;52.164;21.244;2023-01-26T05:28:01;1.90;99.90
49855;DHT22;35752;52.164;21.244;2023-01-26T05:30:27;1.90;99.90
49855;DHT22;35752;52.164;21.244;2023-01-26T05:32:53;1.90;99.90
49855;DHT22;35752;52.164;21.244;2023-01-26T05:35:18;1.90;99.90
49855;DHT22;35752;52.164;21.244;2023-01-26T05:37:44;2.00;99.90
49855;DHT22;35752;52.164;21.244;2023-01-26T05:40:11;1.90;99.90
49855;DHT22;35752;52.164;21.244;2023-01-26T05:42:37;2.00;99.90
49855;DHT22;35752;52.164;21.244;2023-01-26T05:45:03;2.00;99.90
49855;DHT22;35752;52.164;21.244;2023-01-26T05:47:29;1.90;99.90
49855;DHT22;35752;52.164;21.244;2023-01-26T05:49:55;1.90;99.90
49855;DHT22;35752;52.164;21.244;2023-01-26T05:52:21;1.90;99.90
49855;DHT22;35752;52.164;21.244;2023-01-26T05:54:47;1.90;99.90
49855;DHT22;35752;52.164;21.244;2023-01-26T05:57:13;1.90;99.90
49855;DHT22;35752;52.164;21.244;2023-01-26T05:59:41;1.90;99.90
49855;DHT22;35752;52.164;21.244;2023-01-26T06:02:07;1.90;99.90
49855;DHT22;35752;52.164;21.244;2023-01-26T06:04:33;1.90;99.90
49855;DHT22;35752;52.164;21.244;2023-01-26T06:06:59;1.90;99.90
49855;DHT22;35752;52.164;21.244;2023-01-26T06:09:25;1.90;99.90
49855;DHT22;35752;52.164;21.244;2023-01-26T06:11:51;1.90;99.90
49855;DHT22;35752;52.164;21.244;2023-01-26T06:14:16;1.90;99.90
49855;DHT22;35752;52.164;21.244;2023-01-26T06:16:42;1.90;99.90
49855;DHT22;35752;52.164;21.244;2023-01-26T06:19:09;1.90;99.90
49855;DHT22;35752;52.164;21.244;2023-01-26T06:21:35;1.90;99.90
49855;DHT22;35752;52.164;21.244;2023-01-26T06:24:00;1.90;99.90
49855;DHT22;35752;52.164;21.244;2023-01-26T06:26:26;1.90;99.90
49855;DHT22;35752;52.164;21.244;2023-01-26T06:28:52;1.90;99.90
49855;DHT22;35752;52.164;21.244;2023-01-26T06:31:18;2.00;99.90
49855;DHT22;35752;52.164;21.244;2023-01-26T06:33:45;1.90;99.90
49855;DHT22;35752;52.164;21.244;2023-01-26T06:36:12;2.00;99.90
49855;DHT22;35752;52.164;21.244;2023-01-26T06:38:43;2.00;99.90
49855;DHT22;35752;52.164;21.244;2023-01-26T06:41:10;1.90;99.90
49855;DHT22;35752;52.164;21.244;2023-01-26T06:43:36;2.00;99.90
49855;DHT22;35752;52.164;21.244;2023-01-26T06:46:02;1.90;99.90
49855;DHT22;35752;52.164;21.244;2023-01-26T06:48:30;1.90;99.90
49855;DHT22;35752;52.164;21.244;2023-01-26T06:51:04;1.90;99.90
49855;DHT22;35752;52.164;21.244;2023-01-26T06:53:55;1.90;99.90
49855;DHT22;35752;52.164;21.244;2023-01-26T06:56:21;1.90;99.90
49855;DHT22;35752;52.164;21.244;2023-01-26T06:58:47;1.90;99.90
49855;DHT22;35752;52.164;21.244;2023-01-26T07:03:42;1.90;99.90
49855;DHT22;35752;52.164;21.244;2023-01-26T07:06:07;1.90;99.90
49855;DHT22;35752;52.164;21.244;2023-01-26T07:08:36;1.90;99.90
49855;DHT22;35752;52.164;21.244;2023-01-26T07:11:02;1.90;99.90
49855;DHT22;35752;52.164;21.244;2023-01-26T07:13:28;1.90;99.90
49855;DHT22;35752;52.164;21.244;2023-01-26T07:16:05;1.80;99.90
49855;DHT22;35752;52.164;21.244;2023-01-26T07:18:32;1.80;99.90
49855;DHT22;35752;52.164;21.244;2023-01-26T07:21:02;1.80;99.90
49855;DHT22;35752;52.164;21.244;2023-01-26T07:23:28;1.80;99.90
49855;DHT22;35752;52.164;21.244;2023-01-26T07:25:54;1.80;99.90
49855;DHT22;35752;52.164;21.244;2023-01-26T07:28:19;1.80;99.90
49855;DHT22;35752;52.164;21.244;2023-01-26T07:30:46;1.90;99.90
49855;DHT22;35752;52.164;21.244;2023-01-26T07:33:12;2.00;99.90
49855;DHT22;35752;52.164;21.244;2023-01-26T07:35:37;1.90;99.90
49855;DHT22;35752;52.164;21.244;2023-01-26T07:38:04;2.00;99.90
49855;DHT22;35752;52.164;21.244;2023-01-26T07:40:30;1.90;99.90
49855;DHT22;35752;52.164;21.244;2023-01-26T07:42:57;2.00;99.90
49855;DHT22;35752;52.164;21.244;2023-01-26T07:45:24;2.10;99.90
49855;DHT22;35752;52.164;21.244;2023-01-26T07:47:49;2.00;99.90
49855;DHT22;35752;52.164;21.244;2023-01-26T07:50:15;2.00;99.90
49855;DHT22;35752;52.164;21.244;2023-01-26T07:52:41;2.00;99.90
49855;DHT22;35752;52.164;21.244;2023-01-26T07:55:08;2.00;99.90
49855;DHT22;35752;52.164;21.244;2023-01-26T07:57:34;2.10;99.90
49855;DHT22;35752;52.164;21.244;2023-01-26T07:59:59;2.10;99.90
49855;DHT22;35752;52.164;21.244;2023-01-26T08:02:25;2.10;99.90
49855;DHT22;35752;52.164;21.244;2023-01-26T08:04:50;2.10;99.90
49855;DHT22;35752;52.164;21.244;2023-01-26T08:07:16;2.10;99.90
49855;DHT22;35752;52.164;21.244;2023-01-26T08:09:42;2.10;99.90
49855;DHT22;35752;52.164;21.244;2023-01-26T08:12:07;2.10;99.90
49855;DHT22;35752;52.164;21.244;2023-01-26T08:14:33;2.00;99.90
49855;DHT22;35752;52.164;21.244;2023-01-26T08:17:00;2.00;99.90
49855;DHT22;35752;52.164;21.244;2023-01-26T08:19:26;2.00;99.90
49855;DHT22;35752;52.164;21.244;2023-01-26T08:21:52;2.10;99.90
49855;DHT22;35752;52.164;21.244;2023-01-26T08:24:18;2.10;99.90
49855;DHT22;35752;52.164;21.244;2023-01-26T08:26:44;2.10;99.90
49855;DHT22;35752;52.164;21.244;2023-01-26T08:29:10;2.10;99.90
49855;DHT22;35752;52.164;21.244;2023-01-26T08:31:36;2.10;99.90
49855;DHT22;35752;52.164;21.244;2023-01-26T08:34:02;2.10;99.90
49855;DHT22;35752;52.164;21.244;2023-01-26T08:36:28;2.10;99.90
49855;DHT22;35752;52.164;21.244;2023-01-26T08:38:55;2.20;99.90
49855;DHT22;35752;52.164;21.244;2023-01-26T08:41:20;2.20;99.90
49855;DHT22;35752;52.164;21.244;2023-01-26T08:43:46;2.30;99.90
49855;DHT22;35752;52.164;21.244;2023-01-26T08:46:12;2.20;99.90
49855;DHT22;35752;52.164;21.244;2023-01-26T08:48:37;2.30;99.90
49855;DHT22;35752;52.164;21.244;2023-01-26T08:51:05;2.30;99.90
49855;DHT22;35752;52.164;21.244;2023-01-26T08:53:31;2.40;99.90
49855;DHT22;35752;52.164;21.244;2023-01-26T08:56:01;2.30;99.90
49855;DHT22;35752;52.164;21.244;2023-01-26T08:58:26;2.30;99.90
49855;DHT22;35752;52.164;21.244;2023-01-26T09:00:53;2.30;99.90
49855;DHT22;35752;52.164;21.244;2023-01-26T09:03:19;2.40;99.90
49855;DHT22;35752;52.164;21.244;2023-01-26T09:05:44;2.40;99.90
49855;DHT22;35752;52.164;21.244;2023-01-26T09:08:10;2.30;99.90
49855;DHT22;35752;52.164;21.244;2023-01-26T09:10:37;2.40;99.90
49855;DHT22;35752;52.164;21.244;2023-01-26T09:13:03;2.40;99.90
49855;DHT22;35752;52.164;21.244;2023-01-26T09:15:29;2.40;99.90
49855;DHT22;35752;52.164;21.244;2023-01-26T09:17:55;2.30;99.90
49855;DHT22;35752;52.164;21.244;2023-01-26T09:20:20;2.30;99.90
49855;DHT22;35752;52.164;21.244;2023-01-26T09:22:46;2.30;99.90
49855;DHT22;35752;52.164;21.244;2023-01-26T09:25:13;2.30;99.90
49855;DHT22;35752;52.164;21.244;2023-01-26T09:27:38;2.30;99.90
49855;DHT22;35752;52.164;21.244;2023-01-26T09:30:07;2.20;99.90
49855;DHT22;35752;52.164;21.244;2023-01-26T09:32:33;2.30;99.90
49855;DHT22;35752;52.164;21.244;2023-01-26T09:34:58;2.30;99.90
49855;DHT22;35752;52.164;21.244;2023-01-26T09:37:24;2.30;99.90
49855;DHT22;35752;52.164;21.244;2023-01-26T09:39:50;2.20;99.90
49855;DHT22;35752;52.164;21.244;2023-01-26T09:42:37;2.30;99.90
49855;DHT22;35752;52.164;21.244;2023-01-26T09:47:54;2.40;99.90
49855;DHT22;35752;52.164;21.244;2023-01-26T09:50:27;2.50;99.90
49855;DHT22;35752;52.164;21.244;2023-01-26T09:53:18;2.50;99.90
49855;DHT22;35752;52.164;21.244;2023-01-26T09:55:47;2.50;99.90
49855;DHT22;35752;52.164;21.244;2023-01-26T10:00:59;2.60;99.90
49855;DHT22;35752;52.164;21.244;2023-01-26T10:08:27;2.60;99.90
49855;DHT22;35752;52.164;21.244;2023-01-26T10:10:57;2.70;99.90
49855;DHT22;35752;52.164;21.244;2023-01-26T10:13:25;2.60;99.90
49855;DHT22;35752;52.164;21.244;2023-01-26T10:15:55;2.70;99.90
49855;DHT22;35752;52.164;21.244;2023-01-26T10:18:31;2.60;99.90
49855;DHT22;35752;52.164;21.244;2023-01-26T10:20:59;2.60;99.90
49855;DHT22;35752;52.164;21.244;2023-01-26T10:23:33;2.60;99.90
49855;DHT22;35752;52.164;21.244;2023-01-26T10:26:12;2.60;99.90
49855;DHT22;35752;52.164;21.244;2023-01-26T10:28:40;2.70;99.90
49855;DHT22;35752;52.164;21.244;2023-01-26T10:31:13;2.70;99.90
49855;DHT22;35752;52.164;21.244;2023-01-26T10:33:52;2.70;99.90
49855;DHT22;35752;52.164;21.244;2023-01-26T10:36:18;2.60;99.90
49855;DHT22;35752;52.164;21.244;2023-01-26T10:38:45;2.50;99.90
49855;DHT22;35752;52.164;21.244;2023-01-26T10:43:53;2.60;99.90
49855;DHT22;35752;52.164;21.244;2023-01-26T10:46:30;2.60;99.90
49855;DHT22;35752;52.164;21.244;2023-01-26T10:51:37;2.70;99.90
49855;DHT22;35752;52.164;21.244;2023-01-26T10:54:23;2.70;99.90
49855;DHT22;35752;52.164;21.244;2023-01-26T10:59:31;2.60;99.90
49855;DHT22;35752;52.164;21.244;2023-01-26T11:05:03;2.60;99.90
49855;DHT22;35752;52.164;21.244;2023-01-26T11:07:43;2.70;99.90
49855;DHT22;35752;52.164;21.244;2023-01-26T11:10:32;2.60;99.90
49855;DHT22;35752;52.164;21.244;2023-01-26T11:13:15;2.60;99.90
49855;DHT22;35752;52.164;21.244;2023-01-26T11:15:47;2.60;99.90
49855;DHT22;35752;52.164;21.244;2023-01-26T11:21:12;2.70;99.90
49855;DHT22;35752;52.164;21.244;2023-01-26T11:23:51;2.70;99.90
49855;DHT22;35752;52.164;21.244;2023-01-26T11:38:17;2.70;99.90
49855;DHT22;35752;52.164;21.244;2023-01-26T11:41:02;2.80;99.90
49855;DHT22;35752;52.164;21.244;2023-01-26T11:51:55;2.80;99.90
49855;DHT22;35752;52.164;21.244;2023-01-26T12:00:15;2.70;99.90
49855;DHT22;35752;52.164;21.244;2023-01-26T12:02:42;2.70;99.90
49855;DHT22;35752;52.164;21.244;2023-01-26T12:05:19;2.70;99.90
49855;DHT22;35752;52.164;21.244;2023-01-26T12:08:11;2.70;99.90
49855;DHT22;35752;52.164;21.244;2023-01-26T12:10:47;2.70;99.90
49855;DHT22;35752;52.164;21.244;2023-01-26T12:13:33;2.70;99.90
49855;DHT22;35752;52.164;21.244;2023-01-26T12:16:10;2.70;99.90
49855;DHT22;35752;52.164;21.244;2023-01-26T12:21:49;2.70;99.90
49855;DHT22;35752;52.164;21.244;2023-01-26T12:24:23;2.70;99.90
49855;DHT22;35752;52.164;21.244;2023-01-26T12:26:54;2.70;99.90
49855;DHT22;35752;52.164;21.244;2023-01-26T12:32:10;2.70;99.90
49855;DHT22;35752;52.164;21.244;2023-01-26T12:34:37;2.70;99.90
49855;DHT22;35752;52.164;21.244;2023-01-26T12:40:19;2.70;99.90
49855;DHT22;35752;52.164;21.244;2023-01-26T12:45:19;2.60;99.90
49855;DHT22;35752;52.164;21.244;2023-01-26T12:47:54;2.60;99.90
49855;DHT22;35752;52.164;21.244;2023-01-26T12:53:24;2.60;99.90
49855;DHT22;35752;52.164;21.244;2023-01-26T12:56:11;2.60;99.90
49855;DHT22;35752;52.164;21.244;2023-01-26T12:58:41;2.50;99.90
49855;DHT22;35752;52.164;21.244;2023-01-26T13:01:12;2.60;99.90
49855;DHT22;35752;52.164;21.244;2023-01-26T13:11:04;2.60;99.90
49855;DHT22;35752;52.164;21.244;2023-01-26T13:13:33;2.60;99.90
49855;DHT22;35752;52.164;21.244;2023-01-26T13:16:30;2.50;99.90
49855;DHT22;35752;52.164;21.244;2023-01-26T13:18:57;2.60;99.90
49855;DHT22;35752;52.164;21.244;2023-01-26T13:21:40;2.50;99.90
49855;DHT22;35752;52.164;21.244;2023-01-26T13:34:40;2.60;99.90
49855;DHT22;35752;52.164;21.244;2023-01-26T13:39:43;2.60;99.90
49855;DHT22;35752;52.164;21.244;2023-01-26T13:42:18;2.60;99.90
49855;DHT22;35752;52.164;21.244;2023-01-26T13:45:05;2.60;99.90
49855;DHT22;35752;52.164;21.244;2023-01-26T13:47:42;2.60;99.90
49855;DHT22;35752;52.164;21.244;2023-01-26T13:50:31;2.60;99.90
49855;DHT22;35752;52.164;21.244;2023-01-26T13:52:58;2.50;99.90
49855;DHT22;35752;52.164;21.244;2023-01-26T13:55:26;2.50;99.90
49855;DHT22;35752;52.164;21.244;2023-01-26T13:58:13;2.60;99.90
49855;DHT22;35752;52.164;21.244;2023-01-26T14:00:39;2.60;99.90
49855;DHT22;35752;52.164;21.244;2023-01-26T14:03:20;2.60;99.90
49855;DHT22;35752;52.164;21.244;2023-01-26T14:06:08;2.50;99.90
49855;DHT22;35752;52.164;21.244;2023-01-26T14:08:35;2.60;99.90
49855;DHT22;35752;52.164;21.244;2023-01-26T14:11:04;2.60;99.90
49855;DHT22;35752;52.164;21.244;2023-01-26T14:13:37;2.70;99.90
49855;DHT22;35752;52.164;21.244;2023-01-26T14:16:04;2.70;99.90
49855;DHT22;35752;52.164;21.244;2023-01-26T14:18:31;2.70;99.90
49855;DHT22;35752;52.164;21.244;2023-01-26T14:21:01;2.60;99.90
49855;DHT22;35752;52.164;21.244;2023-01-26T14:23:33;2.60;99.90
49855;DHT22;35752;52.164;21.244;2023-01-26T14:26:06;2.60;99.90
49855;DHT22;35752;52.164;21.244;2023-01-26T14:28:40;2.60;99.90
49855;DHT22;35752;52.164;21.244;2023-01-26T14:31:12;2.60;99.90
49855;DHT22;35752;52.164;21.244;2023-01-26T14:33:40;2.60;99.90
49855;DHT22;35752;52.164;21.244;2023-01-26T14:36:06;2.60;99.90
49855;DHT22;35752;52.164;21.244;2023-01-26T14:38:41;2.50;99.90
49855;DHT22;35752;52.164;21.244;2023-01-26T14:41:19;2.50;99.90
49855;DHT22;35752;52.164;21.244;2023-01-26T14:43:48;2.50;99.90
49855;DHT22;35752;52.164;21.244;2023-01-26T14:46:25;2.60;99.90
49855;DHT22;35752;52.164;21.244;2023-01-26T14:49:03;2.50;99.90
49855;DHT22;35752;52.164;21.244;2023-01-26T14:51:31;2.50;99.90
49855;DHT22;35752;52.164;21.244;2023-01-26T14:54:00;2.50;99.90
49855;DHT22;35752;52.164;21.244;2023-01-26T14:56:34;2.60;99.90
49855;DHT22;35752;52.164;21.244;2023-01-26T14:59:01;2.50;99.90
49855;DHT22;35752;52.164;21.244;2023-01-26T15:01:29;2.50;99.90
49855;DHT22;35752;52.164;21.244;2023-01-26T15:04:01;2.50;99.90
49855;DHT22;35752;52.164;21.244;2023-01-26T15:06:29;2.40;99.90
49855;DHT22;35752;52.164;21.244;2023-01-26T15:09:24;2.40;99.90
49855;DHT22;35752;52.164;21.244;2023-01-26T15:11:57;2.40;99.90
49855;DHT22;35752;52.164;21.244;2023-01-26T15:17:37;2.40;99.90
49855;DHT22;35752;52.164;21.244;2023-01-26T15:22:39;2.50;99.90
49855;DHT22;35752;52.164;21.244;2023-01-26T15:25:21;2.50;99.90
49855;DHT22;35752;52.164;21.244;2023-01-26T15:27:52;2.50;99.90
49855;DHT22;35752;52.164;21.244;2023-01-26T15:30:25;2.50;99.90
49855;DHT22;35752;52.164;21.244;2023-01-26T15:32:51;2.50;99.90
49855;DHT22;35752;52.164;21.244;2023-01-26T15:37:46;2.40;99.90
49855;DHT22;35752;52.164;21.244;2023-01-26T15:40:12;2.40;99.90
49855;DHT22;35752;52.164;21.244;2023-01-26T15:42:37;2.40;99.90
49855;DHT22;35752;52.164;21.244;2023-01-26T15:45:18;2.50;99.90
49855;DHT22;35752;52.164;21.244;2023-01-26T15:47:45;2.40;99.90
49855;DHT22;35752;52.164;21.244;2023-01-26T15:50:10;2.40;99.90
49855;DHT22;35752;52.164;21.244;2023-01-26T15:52:36;2.30;99.90
49855;DHT22;35752;52.164;21.244;2023-01-26T15:55:17;2.30;99.90
49855;DHT22;35752;52.164;21.244;2023-01-26T15:57:44;2.20;99.90
49855;DHT22;35752;52.164;21.244;2023-01-26T16:00:12;2.20;99.90
49855;DHT22;35752;52.164;21.244;2023-01-26T16:02:38;2.20;99.90
49855;DHT22;35752;52.164;21.244;2023-01-26T16:05:04;2.20;99.90
49855;DHT22;35752;52.164;21.244;2023-01-26T16:07:29;2.20;99.90
49855;DHT22;35752;52.164;21.244;2023-01-26T16:09:55;2.20;99.90
49855;DHT22;35752;52.164;21.244;2023-01-26T16:12:21;2.30;99.90
49855;DHT22;35752;52.164;21.244;2023-01-26T16:14:46;2.20;99.90
49855;DHT22;35752;52.164;21.244;2023-01-26T16:17:13;2.20;99.90
49855;DHT22;35752;52.164;21.244;2023-01-26T16:19:40;2.20;99.90
49855;DHT22;35752;52.164;21.244;2023-01-26T16:22:09;2.10;99.90
49855;DHT22;35752;52.164;21.244;2023-01-26T16:24:35;2.10;99.90
49855;DHT22;35752;52.164;21.244;2023-01-26T16:27:01;2.10;99.90
49855;DHT22;35752;52.164;21.244;2023-01-26T16:29:27;2.10;99.90
49855;DHT22;35752;52.164;21.244;2023-01-26T16:31:52;2.10;99.90
49855;DHT22;35752;52.164;21.244;2023-01-26T16:34:18;2.10;99.90
49855;DHT22;35752;52.164;21.244;2023-01-26T16:36:44;2.10;99.90
49855;DHT22;35752;52.164;21.244;2023-01-26T16:39:09;2.10;99.90
49855;DHT22;35752;52.164;21.244;2023-01-26T16:41:36;2.20;99.90
49855;DHT22;35752;52.164;21.244;2023-01-26T16:44:01;2.20;99.90
49855;DHT22;35752;52.164;21.244;2023-01-26T16:46:29;2.20;99.90
49855;DHT22;35752;52.164;21.244;2023-01-26T16:48:55;2.20;99.90
49855;DHT22;35752;52.164;21.244;2023-01-26T16:51:24;2.20;99.90
49855;DHT22;35752;52.164;21.244;2023-01-26T16:53:51;2.20;99.90
49855;DHT22;35752;52.164;21.244;2023-01-26T16:56:18;2.20;99.90
49855;DHT22;35752;52.164;21.244;2023-01-26T16:58:44;2.20;99.90
49855;DHT22;35752;52.164;21.244;2023-01-26T17:01:27;2.20;99.90
49855;DHT22;35752;52.164;21.244;2023-01-26T17:03:55;2.20;99.90
49855;DHT22;35752;52.164;21.244;2023-01-26T17:06:21;2.20;99.90
49855;DHT22;35752;52.164;21.244;2023-01-26T17:08:47;2.20;99.90
49855;DHT22;35752;52.164;21.244;2023-01-26T17:11:19;2.10;99.90
49855;DHT22;35752;52.164;21.244;2023-01-26T17:13:45;2.10;99.90
49855;DHT22;35752;52.164;21.244;2023-01-26T17:16:14;2.10;99.90
49855;DHT22;35752;52.164;21.244;2023-01-26T17:18:40;2.20;99.90
49855;DHT22;35752;52.164;21.244;2023-01-26T17:21:06;2.10;99.90
49855;DHT22;35752;52.164;21.244;2023-01-26T17:23:32;2.10;99.90
49855;DHT22;35752;52.164;21.244;2023-01-26T17:25:58;2.10;99.90
49855;DHT22;35752;52.164;21.244;2023-01-26T17:28:25;2.10;99.90
49855;DHT22;35752;52.164;21.244;2023-01-26T17:30:51;2.10;99.90